Heerhugowaard, Netherlands
Current Conditions -  °F | °C
As of 2:25 AM on Thursday 27 Nov 2014 (Local Time) from EHKD Reporting Station
Haze Haze  
Wind Chill: 35°   Ceiling: 200
Heat Index: 41°   Visibility: 1.1mi
Dew Point: 41°   Wind: 10mph
Humidity: 100%   Direction: 130°SE
Pressure: 29.8"   Gusts: NA
Location:  52.67°N, 4.85°E
Report Text: EHKD 270125Z AUTO 13009KT 1900 R21/1500 BR OVC002 05/05 Q1009 AMB
Loading
Personal Weather Stations






























Interactive Weather Map New forecast layout! Learn more

10-Day Weather Forecast

Advertisements
Track Severe Weather on mobile